< < Back
Terminal Aerodrome Forecast


Current Version              Previous Versions:   1  2  3  4  5  6  7  8  9  

Terminal Aerodrome Forecast

760
FTUS42 KILM 250520
TAFFLO
TAF
KFLO 250520Z 2506/2606 00000KT P6SM SKC
     FM251200 04005KT P6SM SKC
     FM260000 13005KT P6SM SKC=

Latest METAR

157
SAUS70 KWBC 250600 RRL
MTRFLO
METAR KFLO 250553Z 00000KT 10SM CLR 20/18 A3019 RMK AO2 SLP219 T02000183
10283 20200 58006


USA.gov is the U.S. government's official web portal to all federal, state and local government web resources and services.